Time;durP1;ratioP1;P1;durP2;ratioP2;P2;SDS_P1;SDS_P2;PMS_P1;PMS_P2;Temp;Humidity;BMP_temperature;BMP_pressure;BME280_temperature;BME280_humidity;BME280_pressure;Samples;Min_cycle;Max_cycle;Signal;HPM_P1;HPM_P2
2023/04/15 00:01:00;;;;;;;11.43;4.07;;;;;;;;;;5048443;28;20043;-81
2023/04/15 00:03:27;;;;;;;9.93;4.13;;;;;;;;;;5057964;28;20039;-81
2023/04/15 00:05:53;;;;;;;8.57;4.27;;;;;;;;;;5049952;28;20029;-81
2023/04/15 00:08:19;;;;;;;13.27;4.60;;;;;;;;;;5051167;28;20075;-81
2023/04/15 00:10:45;;;;;;;12.90;4.50;;;;;;;;;;5055690;28;20150;-81
2023/04/15 00:13:11;;;;;;;10.47;4.63;;;;;;;;;;5053921;28;20035;-81
2023/04/15 00:15:38;;;;;;;8.10;3.83;;;;;;;;;;5050688;28;20873;-81
2023/04/15 00:18:04;;;;;;;7.67;3.63;;;;;;;;;;5050111;28;20033;-81
2023/04/15 00:20:30;;;;;;;9.20;4.10;;;;;;;;;;5048757;28;20033;-81
2023/04/15 00:22:56;;;;;;;13.73;4.40;;;;;;;;;;5053864;28;20037;-81
2023/04/15 00:25:23;;;;;;;7.97;3.77;;;;;;;;;;5048780;28;20033;-81
2023/04/15 00:27:49;;;;;;;8.50;3.93;;;;;;;;;;5053918;28;20029;-81
2023/04/15 00:30:15;;;;;;;8.90;3.87;;;;;;;;;;5049277;28;20033;-81
2023/04/15 00:32:41;;;;;;;7.40;4.23;;;;;;;;;;5056086;28;20020;-80
2023/04/15 00:35:08;;;;;;;10.93;4.03;;;;;;;;;;5050308;28;20031;-81
2023/04/15 00:37:37;;;;;;;8.80;3.60;;;;;;;;;;5059958;28;20151;-80
2023/04/15 00:40:05;;;;;;;11.47;4.70;;;;;;;;;;5056719;28;20028;-80
2023/04/15 00:42:31;;;;;;;16.87;4.77;;;;;;;;;;5044175;28;20161;-81
2023/04/15 00:44:58;;;;;;;10.10;3.97;;;;;;;;;;5054092;28;20058;-81
2023/04/15 00:47:24;;;;;;;11.30;4.17;;;;;;;;;;5052697;28;20033;-81
2023/04/15 00:49:50;;;;;;;8.20;3.90;;;;;;;;;;5056064;28;20116;-81
2023/04/15 00:52:16;;;;;;;17.13;4.07;;;;;;;;;;5055572;28;20029;-81
2023/04/15 00:54:42;;;;;;;10.63;4.77;;;;;;;;;;5054591;28;20062;-81
2023/04/15 00:57:09;;;;;;;7.93;4.57;;;;;;;;;;5050010;28;20036;-81
2023/04/15 00:59:35;;;;;;;8.37;4.23;;;;;;;;;;5048900;28;20056;-81
2023/04/15 01:02:01;;;;;;;13.57;6.03;;;;;;;;;;5061418;28;20024;-81
2023/04/15 01:04:27;;;;;;;12.90;5.43;;;;;;;;;;5051513;28;20360;-81
2023/04/15 01:06:53;;;;;;;11.60;6.40;;;;;;;;;;5054453;28;20350;-81
2023/04/15 01:09:19;;;;;;;11.40;6.20;;;;;;;;;;5056858;28;20038;-80
2023/04/15 01:11:45;;;;;;;12.23;5.80;;;;;;;;;;5053068;28;20049;-81
2023/04/15 01:14:11;;;;;;;9.40;5.53;;;;;;;;;;5050058;28;20025;-80
2023/04/15 01:16:38;;;;;;;8.80;5.10;;;;;;;;;;5050335;28;20029;-81
2023/04/15 01:19:08;;;;;;;12.70;4.93;;;;;;;;;;5054113;28;20032;-81
2023/04/15 01:21:39;;;;;;;9.53;5.07;;;;;;;;;;5059541;28;20244;-81
2023/04/15 01:24:09;;;;;;;8.53;4.50;;;;;;;;;;5054732;28;20034;-81
2023/04/15 01:26:38;;;;;;;11.70;5.60;;;;;;;;;;5059391;28;20028;-80
2023/04/15 01:29:04;;;;;;;10.33;5.63;;;;;;;;;;5054216;28;20024;-81
2023/04/15 01:31:30;;;;;;;12.57;5.13;;;;;;;;;;5047300;28;20057;-80
2023/04/15 01:33:56;;;;;;;14.43;5.43;;;;;;;;;;5056460;28;20532;-81
2023/04/15 01:36:22;;;;;;;11.33;5.23;;;;;;;;;;5048346;28;20039;-81
2023/04/15 01:38:48;;;;;;;8.83;4.80;;;;;;;;;;5048275;28;20024;-81
2023/04/15 01:41:14;;;;;;;14.20;5.33;;;;;;;;;;5052271;28;20456;-81
2023/04/15 01:43:40;;;;;;;9.37;5.90;;;;;;;;;;5055985;28;20033;-81
2023/04/15 01:46:07;;;;;;;10.67;4.90;;;;;;;;;;5050183;28;20030;-80
2023/04/15 01:48:33;;;;;;;13.57;5.23;;;;;;;;;;5049635;28;20045;-82
2023/04/15 01:50:59;;;;;;;13.87;5.60;;;;;;;;;;5047554;28;20033;-81
2023/04/15 01:53:25;;;;;;;12.10;5.00;;;;;;;;;;5048318;28;20310;-80
2023/04/15 01:55:51;;;;;;;15.60;5.57;;;;;;;;;;5051699;28;20343;-80
2023/04/15 01:58:18;;;;;;;15.17;5.10;;;;;;;;;;5045601;28;20460;-80
2023/04/15 02:00:44;;;;;;;11.13;5.20;;;;;;;;;;5052001;28;20029;-80
2023/04/15 02:03:10;;;;;;;8.13;4.73;;;;;;;;;;5049491;28;20651;-81
2023/04/15 02:05:36;;;;;;;14.37;5.30;;;;;;;;;;5048140;28;20022;-80
2023/04/15 02:08:02;;;;;;;10.00;5.53;;;;;;;;;;5046358;28;20334;-80
2023/04/15 02:10:29;;;;;;;12.27;4.97;;;;;;;;;;5049406;28;20033;-80
2023/04/15 02:12:55;;;;;;;23.70;5.87;;;;;;;;;;5053503;28;20286;-81
2023/04/15 02:15:21;;;;;;;15.43;6.23;;;;;;;;;;5047880;28;20058;-81
2023/04/15 02:17:49;;;;;;;12.47;5.40;;;;;;;;;;5053981;28;20286;-80
2023/04/15 02:20:16;;;;;;;12.40;5.97;;;;;;;;;;5046060;28;20108;-81
2023/04/15 02:22:42;;;;;;;10.33;5.13;;;;;;;;;;5047659;28;20371;-81
2023/04/15 02:25:09;;;;;;;10.50;5.07;;;;;;;;;;5054286;28;20350;-81
2023/04/15 02:27:35;;;;;;;12.43;5.07;;;;;;;;;;5052354;28;20289;-80
2023/04/15 02:30:02;;;;;;;11.60;5.17;;;;;;;;;;5052663;28;20339;-81
2023/04/15 02:32:28;;;;;;;13.77;5.37;;;;;;;;;;5052850;28;20346;-81
2023/04/15 02:34:54;;;;;;;10.37;4.67;;;;;;;;;;5048536;28;20079;-80
2023/04/15 02:37:20;;;;;;;18.43;5.63;;;;;;;;;;5050726;28;20768;-81
2023/04/15 02:39:46;;;;;;;9.23;4.90;;;;;;;;;;5050098;28;20346;-80
2023/04/15 02:42:12;;;;;;;15.87;5.77;;;;;;;;;;5054966;28;20276;-80
2023/04/15 02:44:38;;;;;;;10.00;5.57;;;;;;;;;;5048944;28;20282;-80
2023/04/15 02:47:05;;;;;;;11.60;5.00;;;;;;;;;;5051928;28;20615;-80
2023/04/15 02:49:32;;;;;;;12.30;5.47;;;;;;;;;;5050317;28;20317;-80
2023/04/15 02:51:59;;;;;;;12.57;6.03;;;;;;;;;;5049452;28;20322;-80
2023/04/15 02:54:27;;;;;;;10.87;5.60;;;;;;;;;;5059494;28;21216;-81
2023/04/15 02:56:56;;;;;;;11.77;5.00;;;;;;;;;;5051126;28;20284;-81
2023/04/15 02:59:23;;;;;;;13.43;6.10;;;;;;;;;;5051718;28;20374;-81
2023/04/15 03:01:49;;;;;;;11.50;5.03;;;;;;;;;;5057731;28;21929;-81
2023/04/15 03:04:15;;;;;;;13.50;5.67;;;;;;;;;;5053080;28;20778;-80
2023/04/15 03:06:41;;;;;;;10.03;5.40;;;;;;;;;;5066781;28;20283;-80
2023/04/15 03:09:07;;;;;;;8.87;5.00;;;;;;;;;;5050709;28;20274;-80
2023/04/15 03:11:35;;;;;;;11.77;5.17;;;;;;;;;;5050492;28;20379;-81
2023/04/15 03:14:01;;;;;;;11.83;5.80;;;;;;;;;;5058396;28;20306;-80
2023/04/15 03:16:27;;;;;;;11.63;5.20;;;;;;;;;;5054532;28;20342;-80
2023/04/15 03:18:53;;;;;;;12.37;5.07;;;;;;;;;;5055816;28;20267;-82
2023/04/15 03:21:19;;;;;;;7.57;4.97;;;;;;;;;;5054862;28;20272;-80
2023/04/15 03:23:45;;;;;;;11.30;4.67;;;;;;;;;;5055052;28;20116;-81
2023/04/15 03:26:24;;;;;;;13.27;5.30;;;;;;;;;;5059816;28;20309;-81
2023/04/15 03:28:50;;;;;;;12.20;4.90;;;;;;;;;;5053840;28;20285;-81
2023/04/15 03:31:16;;;;;;;12.63;5.20;;;;;;;;;;5054270;28;20279;-80
2023/04/15 03:33:42;;;;;;;13.77;5.73;;;;;;;;;;5058050;28;20279;-80
2023/04/15 03:36:08;;;;;;;9.33;4.77;;;;;;;;;;5049885;28;20275;-81
2023/04/15 03:38:34;;;;;;;11.97;5.77;;;;;;;;;;5051315;28;20029;-81
2023/04/15 03:41:00;;;;;;;7.87;4.50;;;;;;;;;;5057287;28;20031;-80
2023/04/15 03:43:26;;;;;;;7.23;4.23;;;;;;;;;;5057233;28;20294;-81
2023/04/15 03:45:52;;;;;;;11.13;5.50;;;;;;;;;;5061803;28;20287;-80
2023/04/15 03:48:18;;;;;;;12.23;4.73;;;;;;;;;;5066790;28;20283;-80
2023/04/15 03:50:44;;;;;;;11.00;4.90;;;;;;;;;;5053659;28;20314;-81
2023/04/15 03:53:10;;;;;;;10.57;4.50;;;;;;;;;;5051725;28;20045;-81
2023/04/15 03:55:36;;;;;;;16.70;5.20;;;;;;;;;;5054232;28;20302;-81
2023/04/15 03:58:03;;;;;;;8.50;4.23;;;;;;;;;;5049473;28;20284;-80
2023/04/15 04:00:29;;;;;;;8.23;4.40;;;;;;;;;;5057184;28;20036;-81
2023/04/15 04:02:55;;;;;;;11.53;5.23;;;;;;;;;;5052969;28;20288;-81
2023/04/15 04:05:21;;;;;;;12.13;4.73;;;;;;;;;;5049004;28;20282;-81
2023/04/15 04:07:47;;;;;;;15.60;5.90;;;;;;;;;;5053872;28;20327;-81
2023/04/15 04:10:13;;;;;;;10.90;4.80;;;;;;;;;;5052800;28;20043;-81
2023/04/15 04:12:39;;;;;;;12.27;5.40;;;;;;;;;;5055038;28;20112;-81
2023/04/15 04:15:05;;;;;;;15.70;5.17;;;;;;;;;;5051665;28;20284;-81
2023/04/15 04:17:31;;;;;;;11.80;4.37;;;;;;;;;;5052303;28;20280;-81
2023/04/15 04:19:57;;;;;;;13.00;5.67;;;;;;;;;;5046763;28;21165;-81
2023/04/15 04:22:23;;;;;;;8.63;4.57;;;;;;;;;;5050889;28;20283;-81
2023/04/15 04:24:50;;;;;;;18.20;5.60;;;;;;;;;;5054138;28;20311;-81
2023/04/15 04:27:16;;;;;;;11.47;4.27;;;;;;;;;;5051163;28;20272;-81
2023/04/15 04:29:42;;;;;;;13.30;5.00;;;;;;;;;;5053425;28;20767;-81
2023/04/15 04:32:08;;;;;;;12.03;4.80;;;;;;;;;;5050624;28;20691;-81
2023/04/15 04:34:34;;;;;;;11.77;5.30;;;;;;;;;;5056899;28;20386;-81
2023/04/15 04:37:00;;;;;;;17.63;6.13;;;;;;;;;;5051331;28;20298;-81
2023/04/15 04:39:26;;;;;;;10.77;4.73;;;;;;;;;;5054891;28;20028;-81
2023/04/15 04:41:52;;;;;;;11.07;5.53;;;;;;;;;;5051901;28;20295;-81
2023/04/15 04:44:18;;;;;;;11.90;5.23;;;;;;;;;;5050059;28;20268;-81
2023/04/15 04:46:44;;;;;;;9.17;4.87;;;;;;;;;;5052083;28;20344;-81
2023/04/15 04:49:10;;;;;;;12.77;5.17;;;;;;;;;;5053116;28;20283;-81
2023/04/15 04:51:36;;;;;;;10.73;5.60;;;;;;;;;;5054014;28;20348;-81
2023/04/15 04:54:03;;;;;;;18.10;5.73;;;;;;;;;;5049789;28;20195;-81
2023/04/15 04:56:29;;;;;;;15.33;5.23;;;;;;;;;;5058074;28;20280;-81
2023/04/15 04:58:55;;;;;;;11.63;4.80;;;;;;;;;;5055328;28;20274;-82
2023/04/15 05:01:21;;;;;;;11.77;5.03;;;;;;;;;;5055571;28;20292;-81
2023/04/15 05:03:47;;;;;;;10.70;5.40;;;;;;;;;;5057688;28;20294;-81
2023/04/15 05:06:13;;;;;;;8.03;5.10;;;;;;;;;;5051122;28;20275;-81
2023/04/15 05:08:40;;;;;;;11.27;5.13;;;;;;;;;;5051623;28;20333;-81
2023/04/15 05:11:06;;;;;;;10.43;4.90;;;;;;;;;;5054160;28;20270;-81
2023/04/15 05:13:32;;;;;;;10.70;5.63;;;;;;;;;;5052594;28;20644;-81
2023/04/15 05:15:58;;;;;;;11.73;5.33;;;;;;;;;;5052359;28;20380;-81
2023/04/15 05:18:24;;;;;;;12.10;5.47;;;;;;;;;;5053572;28;20275;-81
2023/04/15 05:20:50;;;;;;;10.63;4.80;;;;;;;;;;5053153;28;20311;-81
2023/04/15 05:23:16;;;;;;;11.77;5.10;;;;;;;;;;5050974;28;20732;-82
2023/04/15 05:25:42;;;;;;;9.43;5.10;;;;;;;;;;5049432;28;20336;-81
2023/04/15 05:28:08;;;;;;;14.00;6.47;;;;;;;;;;5053433;28;20287;-80
2023/04/15 05:30:34;;;;;;;12.43;6.40;;;;;;;;;;5054719;28;20290;-81
2023/04/15 05:33:00;;;;;;;8.43;4.93;;;;;;;;;;5062517;28;20297;-81
2023/04/15 05:35:26;;;;;;;11.77;5.73;;;;;;;;;;5056200;28;20280;-80
2023/04/15 05:37:52;;;;;;;8.47;5.20;;;;;;;;;;5055835;28;20345;-81
2023/04/15 05:40:19;;;;;;;13.20;5.30;;;;;;;;;;5049958;28;20275;-81
2023/04/15 05:42:45;;;;;;;14.87;5.53;;;;;;;;;;5056024;28;20287;-81
2023/04/15 05:45:11;;;;;;;13.00;6.33;;;;;;;;;;5051430;28;20319;-81
2023/04/15 05:47:37;;;;;;;13.87;6.03;;;;;;;;;;5056328;28;20279;-81
2023/04/15 05:50:04;;;;;;;11.77;5.77;;;;;;;;;;5055403;28;20270;-82
2023/04/15 05:52:30;;;;;;;12.63;5.50;;;;;;;;;;5053112;28;20309;-81
2023/04/15 05:54:56;;;;;;;15.97;5.87;;;;;;;;;;5051364;28;20323;-81
2023/04/15 05:57:22;;;;;;;12.83;6.37;;;;;;;;;;5052544;28;20271;-81
2023/04/15 05:59:51;;;;;;;11.60;6.97;;;;;;;;;;5050855;28;20589;-81
2023/04/15 06:02:17;;;;;;;13.03;6.47;;;;;;;;;;5057851;28;21913;-81
2023/04/15 06:04:43;;;;;;;16.63;7.03;;;;;;;;;;5051543;28;20276;-80
2023/04/15 06:07:09;;;;;;;11.90;6.93;;;;;;;;;;5048215;28;20123;-81
2023/04/15 06:09:35;;;;;;;14.30;6.47;;;;;;;;;;5050540;28;20064;-81
2023/04/15 06:12:01;;;;;;;13.90;7.10;;;;;;;;;;5048884;28;20066;-81
2023/04/15 06:14:27;;;;;;;15.20;6.70;;;;;;;;;;5050723;28;20493;-81
2023/04/15 06:16:54;;;;;;;11.30;6.27;;;;;;;;;;5053814;28;20078;-81
2023/04/15 06:19:19;;;;;;;13.43;6.33;;;;;;;;;;5050125;28;20082;-81
2023/04/15 06:21:46;;;;;;;21.93;6.00;;;;;;;;;;5053087;28;20040;-81
2023/04/15 06:24:12;;;;;;;14.33;6.57;;;;;;;;;;5049797;28;20048;-82
2023/04/15 06:26:38;;;;;;;16.57;6.47;;;;;;;;;;5047799;28;20043;-81
2023/04/15 06:29:04;;;;;;;13.70;6.77;;;;;;;;;;5050392;28;20029;-81
2023/04/15 06:31:30;;;;;;;9.57;5.27;;;;;;;;;;5046018;28;20026;-81
2023/04/15 06:33:56;;;;;;;11.43;5.70;;;;;;;;;;5050965;28;20111;-81
2023/04/15 06:36:22;;;;;;;15.93;6.17;;;;;;;;;;5052195;28;20071;-81
2023/04/15 06:38:48;;;;;;;13.90;5.97;;;;;;;;;;5051852;28;20044;-81
2023/04/15 06:41:14;;;;;;;13.63;6.57;;;;;;;;;;5050163;28;20105;-81
2023/04/15 06:43:40;;;;;;;11.43;5.50;;;;;;;;;;5052521;28;20482;-81
2023/04/15 06:46:06;;;;;;;17.80;6.43;;;;;;;;;;5049614;28;20090;-81
2023/04/15 06:48:32;;;;;;;12.93;5.90;;;;;;;;;;5051905;28;20063;-81
2023/04/15 06:50:58;;;;;;;10.97;6.23;;;;;;;;;;5055432;28;20025;-81
2023/04/15 06:53:28;;;;;;;10.53;5.67;;;;;;;;;;5052197;28;20445;-81
2023/04/15 06:55:54;;;;;;;20.60;6.40;;;;;;;;;;5053774;28;20360;-80
2023/04/15 06:58:20;;;;;;;9.83;5.20;;;;;;;;;;5058020;28;20048;-81
2023/04/15 07:00:48;;;;;;;12.43;5.47;;;;;;;;;;5052843;28;20021;-81
2023/04/15 07:03:15;;;;;;;12.93;5.67;;;;;;;;;;5060159;28;20029;-81
2023/04/15 07:05:43;;;;;;;17.77;6.73;;;;;;;;;;5050352;28;20037;-81
2023/04/15 07:08:10;;;;;;;11.20;5.37;;;;;;;;;;5058158;28;20084;-81
2023/04/15 07:10:36;;;;;;;8.97;6.13;;;;;;;;;;5056416;28;20033;-81
2023/04/15 07:13:02;;;;;;;12.33;5.90;;;;;;;;;;5046725;28;20041;-81
2023/04/15 07:15:28;;;;;;;9.77;5.47;;;;;;;;;;5056156;28;20502;-81
2023/04/15 07:17:55;;;;;;;13.60;6.83;;;;;;;;;;5056652;28;20107;-81
2023/04/15 07:20:20;;;;;;;10.43;6.10;;;;;;;;;;5051950;28;20028;-81
2023/04/15 07:22:47;;;;;;;10.23;6.73;;;;;;;;;;5046885;28;20532;-81
2023/04/15 07:25:13;;;;;;;11.70;6.60;;;;;;;;;;5051615;28;20481;-81
2023/04/15 07:27:39;;;;;;;11.83;7.30;;;;;;;;;;5055459;28;20050;-81
2023/04/15 07:30:05;;;;;;;10.83;6.60;;;;;;;;;;5053576;28;20109;-81
2023/04/15 07:32:31;;;;;;;9.10;6.10;;;;;;;;;;5060688;28;20120;-81
2023/04/15 07:34:59;;;;;;;14.60;7.60;;;;;;;;;;5058927;28;20495;-81
2023/04/15 07:37:27;;;;;;;13.37;6.87;;;;;;;;;;5065586;28;20056;-82
2023/04/15 07:39:53;;;;;;;9.37;6.10;;;;;;;;;;5066180;28;20086;-82
2023/04/15 07:42:28;;;;;;;12.43;7.47;;;;;;;;;;5074885;28;20118;-81
2023/04/15 07:44:54;;;;;;;11.70;6.77;;;;;;;;;;5088556;22;20323;-79
2023/04/15 07:47:20;;;;;;;9.97;6.97;;;;;;;;;;5064264;28;20045;-81
2023/04/15 07:49:50;;;;;;;9.90;5.70;;;;;;;;;;5065755;28;20010;-79
2023/04/15 07:52:16;;;;;;;8.20;5.83;;;;;;;;;;5064761;28;20047;-80
2023/04/15 07:54:42;;;;;;;12.07;6.73;;;;;;;;;;5056954;28;20029;-80
2023/04/15 07:57:11;;;;;;;11.13;6.87;;;;;;;;;;5068648;28;20039;-80
2023/04/15 07:59:37;;;;;;;8.93;5.57;;;;;;;;;;5071611;28;20025;-78
2023/04/15 08:02:03;;;;;;;8.57;6.23;;;;;;;;;;5072330;28;20037;-79
2023/04/15 08:04:32;;;;;;;9.33;6.13;;;;;;;;;;5070032;28;20132;-79
2023/04/15 08:06:58;;;;;;;7.87;5.47;;;;;;;;;;5068133;28;20120;-79
2023/04/15 08:09:25;;;;;;;12.70;5.10;;;;;;;;;;5058420;28;20031;-79
2023/04/15 08:11:51;;;;;;;6.93;3.90;;;;;;;;;;5071689;28;20036;-79
2023/04/15 08:14:18;;;;;;;6.17;3.30;;;;;;;;;;5060216;28;20029;-79
2023/04/15 08:16:44;;;;;;;6.00;3.30;;;;;;;;;;5062721;28;20025;-80
2023/04/15 08:19:10;;;;;;;4.77;2.93;;;;;;;;;;5060584;28;20056;-80
2023/04/15 08:21:36;;;;;;;6.23;3.03;;;;;;;;;;5062144;28;20033;-78
2023/04/15 08:24:02;;;;;;;5.43;2.80;;;;;;;;;;5052260;28;20080;-80
2023/04/15 08:26:28;;;;;;;4.33;3.20;;;;;;;;;;5067022;28;20071;-78
2023/04/15 08:28:54;;;;;;;6.33;2.53;;;;;;;;;;5065495;28;20024;-77
2023/04/15 08:31:21;;;;;;;7.40;2.60;;;;;;;;;;5064592;28;20028;-80
2023/04/15 08:33:47;;;;;;;3.80;2.27;;;;;;;;;;5057360;28;20036;-79
2023/04/15 08:36:13;;;;;;;3.83;1.80;;;;;;;;;;5062449;28;20053;-80
2023/04/15 08:38:39;;;;;;;3.33;1.87;;;;;;;;;;5055238;28;20017;-80
2023/04/15 08:41:26;;;;;;;4.30;2.10;;;;;;;;;;5056422;28;20060;-79
2023/04/15 08:44:01;;;;;;;4.37;2.40;;;;;;;;;;5061854;28;20088;-79
2023/04/15 08:46:27;;;;;;;2.57;2.00;;;;;;;;;;5056432;28;20025;-79
2023/04/15 08:48:56;;;;;;;2.50;1.87;;;;;;;;;;5057679;28;20036;-79
2023/04/15 08:51:23;;;;;;;3.20;2.10;;;;;;;;;;5058214;28;20027;-81
2023/04/15 08:53:49;;;;;;;2.30;1.80;;;;;;;;;;5062497;28;20024;-79
2023/04/15 08:56:16;;;;;;;4.73;2.23;;;;;;;;;;5063852;28;20136;-80
2023/04/15 08:58:49;;;;;;;3.70;1.97;;;;;;;;;;5064048;28;20025;-78
2023/04/15 09:01:16;;;;;;;2.73;1.97;;;;;;;;;;5072789;28;20021;-79
2023/04/15 09:03:44;;;;;;;4.37;2.17;;;;;;;;;;5071112;28;20052;-79
2023/04/15 09:06:11;;;;;;;3.10;1.67;;;;;;;;;;5070724;28;20009;-77
2023/04/15 09:08:37;;;;;;;2.60;1.50;;;;;;;;;;5071150;28;20036;-78
2023/04/15 09:11:03;;;;;;;6.40;1.80;;;;;;;;;;5068809;28;20025;-79
2023/04/15 09:13:30;;;;;;;3.57;1.97;;;;;;;;;;5071988;28;20112;-77
2023/04/15 09:15:59;;;;;;;4.30;2.13;;;;;;;;;;5070704;28;20025;-77
2023/04/15 09:18:29;;;;;;;3.30;1.60;;;;;;;;;;5070890;28;20013;-78
2023/04/15 09:20:55;;;;;;;1.80;1.30;;;;;;;;;;5070172;28;20021;-77
2023/04/15 09:23:22;;;;;;;3.33;1.73;;;;;;;;;;5064775;28;20021;-79
2023/04/15 09:25:49;;;;;;;4.10;2.07;;;;;;;;;;5066649;28;20047;-78
2023/04/15 09:28:23;;;;;;;9.90;2.33;;;;;;;;;;5068728;28;20052;-79
2023/04/15 09:30:51;;;;;;;3.77;2.00;;;;;;;;;;5062874;28;20039;-80
2023/04/15 09:33:17;;;;;;;3.93;2.40;;;;;;;;;;5064889;28;20116;-80
2023/04/15 09:35:55;;;;;;;3.53;2.40;;;;;;;;;;5065025;28;20021;-78
2023/04/15 09:38:21;;;;;;;4.80;2.60;;;;;;;;;;5069137;28;20010;-78
2023/04/15 09:40:48;;;;;;;4.43;2.73;;;;;;;;;;5067789;28;20057;-79
2023/04/15 09:43:15;;;;;;;6.77;3.00;;;;;;;;;;5067752;28;20029;-79
2023/04/15 09:45:47;;;;;;;3.63;2.47;;;;;;;;;;5065811;28;20020;-80
2023/04/15 09:48:17;;;;;;;3.80;2.23;;;;;;;;;;5065252;28;20017;-79
2023/04/15 09:50:43;;;;;;;3.20;2.57;;;;;;;;;;5065873;28;20025;-80
2023/04/15 09:53:13;;;;;;;5.20;2.93;;;;;;;;;;5066630;28;20029;-80
2023/04/15 09:55:39;;;;;;;4.93;3.20;;;;;;;;;;5063609;28;20020;-78
2023/04/15 09:58:09;;;;;;;5.10;3.13;;;;;;;;;;5066027;28;20028;-78
2023/04/15 10:00:35;;;;;;;4.20;2.60;;;;;;;;;;5081385;28;20443;-78
2023/04/15 10:03:05;;;;;;;4.07;2.77;;;;;;;;;;5069208;28;20032;-79
2023/04/15 10:05:32;;;;;;;3.00;2.27;;;;;;;;;;5065437;28;20313;-78
2023/04/15 10:07:58;;;;;;;5.17;2.50;;;;;;;;;;5081359;28;20033;-80
2023/04/15 10:10:24;;;;;;;3.33;2.60;;;;;;;;;;5064711;28;20028;-79
2023/04/15 10:12:51;;;;;;;5.53;3.17;;;;;;;;;;5060449;28;20029;-79
2023/04/15 10:15:18;;;;;;;4.23;3.70;;;;;;;;;;5064367;28;20021;-78
2023/04/15 10:17:45;;;;;;;4.87;3.10;;;;;;;;;;5066797;28;20120;-78
2023/04/15 10:20:12;;;;;;;7.87;5.53;;;;;;;;;;5066099;28;20013;-78
2023/04/15 10:22:38;;;;;;;5.93;3.10;;;;;;;;;;5069049;28;20108;-78
2023/04/15 10:25:05;;;;;;;3.83;3.03;;;;;;;;;;5067759;28;20031;-77
2023/04/15 10:27:32;;;;;;;5.90;2.93;;;;;;;;;;5068167;28;20048;-77
2023/04/15 10:30:02;;;;;;;4.47;3.40;;;;;;;;;;5069780;28;20033;-77
2023/04/15 10:32:29;;;;;;;4.37;3.23;;;;;;;;;;5069251;28;20025;-80
2023/04/15 10:34:55;;;;;;;4.03;3.23;;;;;;;;;;5085123;28;20033;-78
2023/04/15 10:37:22;;;;;;;4.00;3.40;;;;;;;;;;5065298;28;20033;-78
2023/04/15 10:39:49;;;;;;;5.77;3.60;;;;;;;;;;5085113;28;20056;-77
2023/04/15 10:42:19;;;;;;;5.87;3.07;;;;;;;;;;5071831;28;20504;-78
2023/04/15 10:44:50;;;;;;;4.87;3.60;;;;;;;;;;5069741;28;20017;-78
2023/04/15 10:47:18;;;;;;;4.73;3.43;;;;;;;;;;5080777;28;20025;-79
2023/04/15 10:49:45;;;;;;;4.73;3.60;;;;;;;;;;5067572;28;20198;-79
2023/04/15 10:52:11;;;;;;;3.97;3.20;;;;;;;;;;5081791;28;20063;-78
2023/04/15 10:54:38;;;;;;;7.17;3.27;;;;;;;;;;5067476;28;20029;-78
2023/04/15 10:57:09;;;;;;;4.57;2.93;;;;;;;;;;5064948;28;20048;-79
2023/04/15 10:59:36;;;;;;;3.33;3.00;;;;;;;;;;5069068;28;20028;-80
2023/04/15 11:02:06;;;;;;;4.10;2.83;;;;;;;;;;5070456;28;20029;-77
2023/04/15 11:04:51;;;;;;;3.87;2.50;;;;;;;;;;5064452;28;20071;-78
2023/04/15 11:07:36;;;;;;;4.20;2.53;;;;;;;;;;5070713;28;20051;-78
2023/04/15 11:10:05;;;;;;;3.70;2.70;;;;;;;;;;5071534;28;20071;-78
2023/04/15 11:12:37;;;;;;;3.10;2.50;;;;;;;;;;5073133;28;20032;-79
2023/04/15 11:15:22;;;;;;;3.88;2.95;;;;;;;;;;5072449;28;20021;-78
2023/04/15 11:17:48;;;;;;;3.00;2.70;;;;;;;;;;5072728;28;20051;-79
2023/04/15 11:20:16;;;;;;;4.37;2.83;;;;;;;;;;5069865;28;20025;-79
2023/04/15 11:22:50;;;;;;;3.90;2.83;;;;;;;;;;5074620;28;20094;-78
2023/04/15 11:25:25;;;;;;;3.67;3.10;;;;;;;;;;5073284;28;20029;-79
2023/04/15 11:27:53;;;;;;;4.17;3.20;;;;;;;;;;5072966;28;20084;-78
2023/04/15 11:30:22;;;;;;;5.00;2.90;;;;;;;;;;5074134;28;20028;-77
2023/04/15 11:32:49;;;;;;;5.87;2.90;;;;;;;;;;5072581;28;20191;-77
2023/04/15 11:35:17;;;;;;;4.20;2.50;;;;;;;;;;5073372;28;20029;-79
2023/04/15 11:37:45;;;;;;;2.60;1.93;;;;;;;;;;5074110;28;20029;-78
2023/04/15 11:40:12;;;;;;;3.37;2.13;;;;;;;;;;5075621;28;20080;-78
2023/04/15 11:42:38;;;;;;;2.60;2.30;;;;;;;;;;5073195;28;20047;-76
2023/04/15 11:45:11;;;;;;;2.63;2.30;;;;;;;;;;5070697;28;20025;-81
2023/04/15 11:47:37;;;;;;;2.60;2.30;;;;;;;;;;5070632;28;20083;-79
2023/04/15 11:50:17;;;;;;;5.23;3.03;;;;;;;;;;5068342;28;20029;-79
2023/04/15 11:52:55;;;;;;;4.50;3.43;;;;;;;;;;5070995;28;20033;-77
2023/04/15 11:55:22;;;;;;;3.63;3.20;;;;;;;;;;5071870;28;20021;-80
2023/04/15 11:57:50;;;;;;;3.43;2.80;;;;;;;;;;5069075;28;20020;-80
2023/04/15 12:00:16;;;;;;;5.67;3.10;;;;;;;;;;5087433;28;20036;-79
2023/04/15 12:02:43;;;;;;;3.73;3.43;;;;;;;;;;5073553;28;20024;-79
2023/04/15 12:05:11;;;;;;;4.10;3.70;;;;;;;;;;5087292;28;20045;-79
2023/04/15 12:07:56;;;;;;;3.20;2.90;;;;;;;;;;5069565;28;20028;-78
2023/04/15 12:10:24;;;;;;;4.07;3.67;;;;;;;;;;5080756;28;20017;-78
2023/04/15 12:12:52;;;;;;;4.77;3.53;;;;;;;;;;5068483;28;20040;-79
2023/04/15 12:15:22;;;;;;;5.07;2.70;;;;;;;;;;5069517;28;20031;-80
2023/04/15 12:17:50;;;;;;;3.83;3.43;;;;;;;;;;5070793;28;20104;-80
2023/04/15 12:20:26;;;;;;;2.90;2.70;;;;;;;;;;5069556;28;20013;-79
2023/04/15 12:23:04;;;;;;;3.30;2.67;;;;;;;;;;5073308;28;20040;-77
2023/04/15 12:25:34;;;;;;;2.87;2.47;;;;;;;;;;5070760;28;20016;-78
2023/04/15 12:28:00;;;;;;;2.10;1.90;;;;;;;;;;5069331;28;20032;-79
2023/04/15 12:30:38;;;;;;;4.10;2.23;;;;;;;;;;5070304;28;20017;-80
2023/04/15 12:33:04;;;;;;;2.07;1.87;;;;;;;;;;5070205;28;20021;-81
2023/04/15 12:35:30;;;;;;;2.60;2.40;;;;;;;;;;5072398;28;20044;-78
2023/04/15 12:38:01;;;;;;;2.80;2.20;;;;;;;;;;5072941;28;20029;-80
2023/04/15 12:40:27;;;;;;;4.50;3.10;;;;;;;;;;5071154;28;20021;-78
2023/04/15 12:42:53;;;;;;;3.90;2.60;;;;;;;;;;5072704;28;20029;-79
2023/04/15 12:45:21;;;;;;;3.27;2.90;;;;;;;;;;5072808;28;20036;-78
2023/04/15 12:47:47;;;;;;;5.50;3.30;;;;;;;;;;5070840;28;20041;-77
2023/04/15 12:50:13;;;;;;;3.10;2.60;;;;;;;;;;5073511;28;20051;-78
2023/04/15 12:52:39;;;;;;;3.63;2.90;;;;;;;;;;5071951;28;20032;-78
2023/04/15 12:55:06;;;;;;;8.47;3.10;;;;;;;;;;5072510;28;20045;-79
2023/04/15 12:57:32;;;;;;;4.03;2.93;;;;;;;;;;5072302;28;20036;-78
2023/04/15 12:59:58;;;;;;;3.57;2.83;;;;;;;;;;5068360;28;20122;-80
2023/04/15 13:02:27;;;;;;;3.47;2.80;;;;;;;;;;5069372;28;20049;-79
2023/04/15 13:04:53;;;;;;;4.03;3.07;;;;;;;;;;5070367;28;20096;-78
2023/04/15 13:07:26;;;;;;;3.87;2.80;;;;;;;;;;5073628;28;20028;-77
2023/04/15 13:09:59;;;;;;;3.87;3.20;;;;;;;;;;5072607;28;20435;-79
2023/04/15 13:12:26;;;;;;;4.27;3.30;;;;;;;;;;5073085;28;20041;-78
2023/04/15 13:14:52;;;;;;;4.77;3.63;;;;;;;;;;5068462;28;20060;-79
2023/04/15 13:17:20;;;;;;;6.20;3.97;;;;;;;;;;5070504;28;20067;-79
2023/04/15 13:19:46;;;;;;;4.57;3.73;;;;;;;;;;5087268;28;20097;-79
2023/04/15 13:22:13;;;;;;;7.10;4.20;;;;;;;;;;5070779;28;20032;-78
2023/04/15 13:24:42;;;;;;;4.53;3.70;;;;;;;;;;5069610;28;20077;-78
2023/04/15 13:27:10;;;;;;;4.27;3.00;;;;;;;;;;5086181;28;20043;-78
2023/04/15 13:29:36;;;;;;;3.73;3.03;;;;;;;;;;5070533;28;20013;-78
2023/04/15 13:32:03;;;;;;;5.27;3.17;;;;;;;;;;5084862;28;20045;-78
2023/04/15 13:34:29;;;;;;;3.10;2.50;;;;;;;;;;5070772;28;20020;-79
2023/04/15 13:36:55;;;;;;;2.70;2.33;;;;;;;;;;5072565;28;20084;-78
2023/04/15 13:39:22;;;;;;;4.13;2.60;;;;;;;;;;5068534;28;20045;-78
2023/04/15 13:41:48;;;;;;;5.00;3.03;;;;;;;;;;5069487;28;20104;-78
2023/04/15 13:44:14;;;;;;;5.03;4.53;;;;;;;;;;5070874;28;20025;-79
2023/04/15 13:46:46;;;;;;;7.60;6.80;;;;;;;;;;5071026;28;21569;-78
2023/04/15 13:49:21;;;;;;;9.38;6.75;;;;;;;;;;5068238;28;20048;-81
2023/04/15 13:51:47;;;;;;;7.60;6.50;;;;;;;;;;5085127;28;20048;-79
2023/04/15 13:54:13;;;;;;;10.37;7.97;;;;;;;;;;5069377;28;20122;-78
2023/04/15 13:56:40;;;;;;;10.10;7.60;;;;;;;;;;5069951;28;20040;-79
2023/04/15 13:59:08;;;;;;;9.57;7.53;;;;;;;;;;5071265;28;20557;-79
2023/04/15 14:01:34;;;;;;;9.57;7.47;;;;;;;;;;5070756;28;20013;-79
2023/04/15 14:04:01;;;;;;;9.60;8.00;;;;;;;;;;5085830;28;20132;-78
2023/04/15 14:06:27;;;;;;;8.50;6.80;;;;;;;;;;5072318;28;20064;-78
2023/04/15 14:08:54;;;;;;;10.83;8.23;;;;;;;;;;5072049;28;20136;-81
2023/04/15 14:11:20;;;;;;;8.63;7.23;;;;;;;;;;5084069;28;20044;-78
2023/04/15 14:13:46;;;;;;;10.90;7.20;;;;;;;;;;5066455;28;20044;-79
2023/04/15 14:16:12;;;;;;;8.60;7.67;;;;;;;;;;5070028;28;20021;-78
2023/04/15 14:18:39;;;;;;;11.57;8.47;;;;;;;;;;5070198;28;20033;-80
2023/04/15 14:21:05;;;;;;;11.47;9.03;;;;;;;;;;5070780;28;20044;-79
2023/04/15 14:23:34;;;;;;;10.27;8.73;;;;;;;;;;5072454;28;20043;-79
2023/04/15 14:26:00;;;;;;;11.43;8.40;;;;;;;;;;5069655;28;20013;-78
2023/04/15 14:28:26;;;;;;;9.30;7.80;;;;;;;;;;5070241;28;21285;-79
2023/04/15 14:30:52;;;;;;;11.83;8.03;;;;;;;;;;5070067;28;20048;-79
2023/04/15 14:33:19;;;;;;;11.77;10.57;;;;;;;;;;5068704;28;20059;-78
2023/04/15 14:35:47;;;;;;;11.33;10.13;;;;;;;;;;5085177;28;20039;-77